Time;durP1;ratioP1;P1;durP2;ratioP2;P2;SDS_P1;SDS_P2;PMS_P1;PMS_P2;Temp;Humidity;BMP_temperature;BMP_pressure;BME280_temperature;BME280_humidity;BME280_pressure;Samples;Min_cycle;Max_cycle;Signal;HPM_P1;HPM_P2
2021/12/21 00:04:58;;;;;;;;;;;-1.80;99.90;;;-3.17;100.00;96307.66;10461670;28;1900;-72
2021/12/21 00:10:01;;;;;;;;;;;-1.80;99.90;;;-3.18;100.00;96312.09;10455757;28;1892;-73
2021/12/21 00:15:05;;;;;;;;;;;-2.00;99.90;;;-3.19;100.00;96309.63;10460489;28;1830;-73
2021/12/21 00:20:23;;;;;;;;;;;-2.00;99.90;;;-3.26;100.00;96310.31;10447873;28;1959;-72
2021/12/21 00:25:27;;;;;;;;;;;-2.00;99.90;;;-3.28;100.00;96308.88;10439213;28;1871;-73
2021/12/21 00:30:30;;;;;;;;;;;-1.90;99.90;;;-3.29;100.00;96299.34;10441403;28;1912;-72
2021/12/21 00:35:34;;;;;;;;;;;-2.00;99.90;;;-3.32;100.00;96300.50;10444597;28;1858;-73
2021/12/21 00:40:37;;;;;;;;;;;-2.00;99.90;;;-3.38;100.00;96295.94;10442298;28;1988;-72
2021/12/21 00:45:40;;;;;;;;;;;-2.00;99.90;;;-3.36;100.00;96287.91;10444851;28;1842;-72
2021/12/21 00:50:43;;;;;;;;;;;-2.00;99.90;;;-3.41;100.00;96290.22;10444435;28;1841;-72
2021/12/21 00:55:46;;;;;;;;;;;-2.10;99.90;;;-3.45;100.00;96279.22;10438438;28;1837;-73
2021/12/21 01:00:50;;;;;;;;;;;-2.00;99.90;;;-3.42;100.00;96273.63;10441798;28;1906;-72
2021/12/21 01:05:59;;;;;;;;;;;-2.20;99.90;;;-3.52;100.00;96267.78;10440079;28;1898;-71
2021/12/21 01:11:10;;;;;;;;;;;-2.30;99.90;;;-3.56;100.00;96267.31;10442768;28;1880;-72
2021/12/21 01:21:42;;;;;;;;;;;-2.20;99.90;;;-3.61;100.00;96258.31;10433317;28;1993;-72
2021/12/21 01:26:58;;;;;;;;;;;-2.40;99.90;;;-3.69;100.00;96255.72;10439593;28;1807;-72
2021/12/21 01:32:08;;;;;;;;;;;-2.40;99.90;;;-3.68;100.00;96246.88;10436392;28;1845;-72
2021/12/21 01:37:19;;;;;;;;;;;-2.40;99.90;;;-3.71;100.00;96247.19;10437105;28;1870;-72
2021/12/21 01:42:32;;;;;;;;;;;-2.20;99.90;;;-3.69;100.00;96246.06;10451271;28;1914;-72
2021/12/21 01:52:43;;;;;;;;;;;-2.40;99.90;;;-3.83;100.00;96237.06;10279638;29;1832;-71
2021/12/21 01:57:46;;;;;;;;;;;-2.40;99.90;;;-3.89;100.00;96235.13;10291368;28;1832;-71
2021/12/21 02:02:50;;;;;;;;;;;-2.50;99.90;;;-3.84;100.00;96232.81;10295521;29;1966;-71
2021/12/21 02:07:53;;;;;;;;;;;-2.50;99.90;;;-3.79;100.00;96220.97;10280706;28;1895;-70
2021/12/21 02:12:56;;;;;;;;;;;-2.70;99.90;;;-3.82;100.00;96212.47;10290320;28;2047;-69
2021/12/21 02:23:26;;;;;;;;;;;-2.60;99.90;;;-3.92;100.00;96200.53;10288152;29;1952;-70
2021/12/21 02:33:55;;;;;;;;;;;-2.90;99.90;;;-3.90;100.00;96195.91;10267690;29;2055;-70
2021/12/21 02:38:59;;;;;;;;;;;-2.80;99.90;;;-3.99;100.00;96192.53;10267360;28;1896;-72
2021/12/21 02:44:03;;;;;;;;;;;-2.80;99.90;;;-4.01;100.00;96188.41;10284190;29;1967;-71
2021/12/21 02:49:06;;;;;;;;;;;-2.90;99.90;;;-4.03;100.00;96190.41;10275491;28;1928;-69
2021/12/21 02:54:09;;;;;;;;;;;-2.90;99.90;;;-4.07;100.00;96187.34;10260102;29;2182;-69
2021/12/21 02:59:12;;;;;;;;;;;-2.90;99.90;;;-4.13;100.00;96191.47;10294906;28;1945;-72
2021/12/21 03:04:15;;;;;;;;;;;-2.80;99.90;;;-4.12;100.00;96192.28;10253973;29;1961;-69
2021/12/21 03:09:37;;;;;;;;;;;-2.70;99.90;;;-4.17;100.00;96194.59;10234962;28;1909;-72
2021/12/21 03:14:46;;;;;;;;;;;-3.10;99.90;;;-4.17;100.00;96192.78;10251530;29;1956;-70
2021/12/21 03:19:50;;;;;;;;;;;;;;;-4.19;100.00;96189.53;10250832;28;1978;-70
2021/12/21 03:24:54;;;;;;;;;;;-2.30;99.90;;;-4.23;100.00;96192.66;10247622;29;2015;-69
2021/12/21 03:30:10;;;;;;;;;;;;;;;-4.27;100.00;96183.47;10242127;29;1960;-69
2021/12/21 03:35:12;;;;;;;;;;;-2.40;99.90;;;-4.23;100.00;96187.41;10259027;29;1956;-71
2021/12/21 03:40:15;;;;;;;;;;;-3.00;99.90;;;-4.28;100.00;96192.34;10250317;29;2372;-71
2021/12/21 03:45:18;;;;;;;;;;;-3.00;99.90;;;-4.22;100.00;96181.16;10262325;28;1919;-70
2021/12/21 03:50:21;;;;;;;;;;;-3.10;99.90;;;-4.29;100.00;96180.22;10260225;28;2322;-70
2021/12/21 03:55:24;;;;;;;;;;;-3.00;99.90;;;-4.30;100.00;96176.78;10248702;29;2403;-70
2021/12/21 04:00:28;;;;;;;;;;;-3.10;99.90;;;-4.33;100.00;96173.66;10249360;28;2135;-70
2021/12/21 04:05:31;;;;;;;;;;;-3.00;99.90;;;-4.32;100.00;96177.94;10268665;29;1884;-72
2021/12/21 04:10:34;;;;;;;;;;;-2.90;99.90;;;-4.41;100.00;96179.75;10251299;28;1952;-71
2021/12/21 04:15:42;;;;;;;;;;;-3.00;99.90;;;-4.42;100.00;96165.81;10233291;29;2050;-70
2021/12/21 04:20:47;;;;;;;;;;;;;;;-4.46;100.00;96168.94;10246618;28;2000;-71
2021/12/21 04:25:50;;;;;;;;;;;-3.00;99.90;;;-4.48;100.00;96171.75;10244957;29;1992;-70
2021/12/21 04:30:53;;;;;;;;;;;-3.30;99.90;;;-4.33;100.00;96173.66;10243512;28;2344;-71
2021/12/21 04:35:56;;;;;;;;;;;-3.20;99.90;;;-4.28;100.00;96173.97;10243651;29;1982;-71
2021/12/21 04:41:04;;;;;;;;;;;-3.10;99.90;;;-4.35;100.00;96172.03;10245300;29;1944;-69
2021/12/21 04:46:07;;;;;;;;;;;-3.10;99.90;;;-4.48;100.00;96174.38;10253041;29;2066;-70
2021/12/21 04:51:09;;;;;;;;;;;-3.30;99.90;;;-4.50;100.00;96179.00;10248726;28;1951;-71
2021/12/21 04:56:12;;;;;;;;;;;-3.30;99.90;;;-4.55;100.00;96180.47;10247479;29;1924;-70
2021/12/21 05:01:15;;;;;;;;;;;-3.30;99.90;;;-4.57;100.00;96174.59;10250925;28;1979;-68
2021/12/21 05:06:19;;;;;;;;;;;-3.30;99.90;;;-4.51;100.00;96177.34;10225975;29;2193;-70
2021/12/21 05:11:32;;;;;;;;;;;-3.30;99.90;;;-4.47;100.00;96168.13;10247372;28;2119;-70
2021/12/21 05:16:35;;;;;;;;;;;-3.30;99.90;;;-4.57;100.00;96171.97;10254476;29;1956;-71
2021/12/21 05:21:38;;;;;;;;;;;-3.30;99.90;;;-4.46;100.00;96180.25;10258634;28;2080;-69
2021/12/21 05:26:41;;;;;;;;;;;-3.30;99.90;;;-4.36;100.00;96180.88;10253063;29;2000;-69
2021/12/21 05:31:44;;;;;;;;;;;-2.60;99.90;;;-4.53;100.00;96176.69;10246736;29;1968;-70
2021/12/21 05:36:47;;;;;;;;;;;-3.30;99.90;;;-4.59;100.00;96172.13;10251986;29;2011;-68
2021/12/21 05:41:51;;;;;;;;;;;-3.30;99.90;;;-4.67;100.00;96182.66;10253704;28;2007;-70
2021/12/21 05:46:54;;;;;;;;;;;-3.40;99.90;;;-4.62;100.00;96190.84;10252275;29;1881;-69
2021/12/21 05:51:57;;;;;;;;;;;-3.50;99.90;;;-4.70;100.00;96188.25;10266322;28;2027;-71
2021/12/21 05:57:00;;;;;;;;;;;;;;;-4.75;100.00;96190.53;10269498;28;2029;-71
2021/12/21 06:02:03;;;;;;;;;;;-3.50;99.90;;;-4.78;100.00;96188.25;10257333;28;2023;-70
2021/12/21 06:07:06;;;;;;;;;;;-3.60;99.90;;;-4.79;100.00;96186.63;10267990;29;1912;-72
2021/12/21 06:12:15;;;;;;;;;;;-3.50;99.90;;;-4.86;100.00;96193.53;10278584;28;2015;-71
2021/12/21 06:22:46;;;;;;;;;;;-3.60;99.90;;;-4.86;100.00;96199.56;10291534;28;1947;-70
2021/12/21 06:27:49;;;;;;;;;;;-3.60;99.90;;;-4.77;100.00;96195.13;10253163;28;1996;-69
2021/12/21 06:32:52;;;;;;;;;;;-3.60;99.90;;;-4.80;100.00;96198.91;10258902;29;2210;-69
2021/12/21 06:37:55;;;;;;;;;;;-3.60;99.90;;;-4.85;100.00;96210.88;10257947;28;1998;-68
2021/12/21 06:43:00;;;;;;;;;;;-3.60;99.90;;;-4.78;100.00;96201.34;10255298;29;2179;-71
2021/12/21 06:53:24;;;;;;;;;;;-3.60;99.90;;;-4.84;100.00;96196.78;10269412;29;2075;-70
2021/12/21 06:58:27;;;;;;;;;;;-3.70;99.90;;;-4.81;100.00;96197.28;10256518;28;2401;-70
2021/12/21 07:03:30;;;;;;;;;;;-3.60;99.90;;;-4.75;100.00;96203.66;10287835;29;2026;-71
2021/12/21 07:08:42;;;;;;;;;;;-3.60;99.90;;;-4.68;100.00;96205.44;10284399;28;1489;-71
2021/12/21 07:19:06;;;;;;;;;;;-3.50;99.90;;;-4.79;100.00;96205.78;10252235;28;2015;-70
2021/12/21 07:24:09;;;;;;;;;;;-3.60;99.90;;;-4.71;100.00;96197.06;10263551;29;2122;-72
2021/12/21 07:29:12;;;;;;;;;;;-3.70;99.90;;;-4.55;100.00;96204.91;10288810;28;2062;-71
2021/12/21 07:34:15;;;;;;;;;;;-3.50;99.90;;;-4.68;100.00;96200.19;10298134;28;1968;-71
2021/12/21 07:39:18;;;;;;;;;;;-3.50;99.90;;;-4.60;100.00;96207.22;10281516;28;2103;-71
2021/12/21 07:44:38;;;;;;;;;;;-3.50;99.90;;;-4.50;100.00;96199.97;10269965;28;2023;-71
2021/12/21 07:49:41;;;;;;;;;;;-3.40;99.90;;;-4.42;100.00;96201.75;10276703;29;2338;-71
2021/12/21 07:54:44;;;;;;;;;;;-3.40;99.90;;;-4.41;100.00;96198.94;10270491;28;2244;-70
2021/12/21 07:59:48;;;;;;;;;;;-3.30;99.90;;;-4.37;100.00;96189.75;10287724;23;2008;-79
2021/12/21 08:04:52;;;;;;;;;;;-3.20;99.90;;;-4.25;100.00;96189.38;10311213;28;2033;-78
2021/12/21 08:09:55;;;;;;;;;;;-3.20;99.90;;;-4.07;100.00;96192.59;10305995;28;1882;-76
2021/12/21 08:14:58;;;;;;;;;;;-3.00;99.90;;;-3.89;100.00;96187.03;10318036;28;1718;-77
2021/12/21 08:20:01;;;;;;;;;;;-2.90;99.90;;;-3.77;100.00;96190.91;10322274;28;1880;-78
2021/12/21 08:25:06;;;;;;;;;;;-2.70;99.90;;;-3.87;100.00;96191.16;10317671;28;1961;-78
2021/12/21 08:30:09;;;;;;;;;;;-2.70;99.90;;;-3.88;100.00;96193.94;10309097;28;1934;-78
2021/12/21 08:35:13;;;;;;;;;;;-2.80;99.90;;;-3.95;100.00;96199.06;10299989;28;1917;-77
2021/12/21 08:40:16;;;;;;;;;;;-2.80;99.90;;;-4.06;100.00;96207.34;10304402;28;1824;-77
2021/12/21 08:45:19;;;;;;;;;;;-2.90;99.90;;;-4.00;100.00;96201.41;10293877;28;1986;-77
2021/12/21 08:50:21;;;;;;;;;;;-2.80;99.90;;;-3.95;100.00;96214.00;10291418;28;1960;-76
2021/12/21 08:55:24;;;;;;;;;;;-2.80;99.90;;;-3.85;100.00;96207.53;10311176;28;2446;-79
2021/12/21 09:00:27;;;;;;;;;;;-2.80;99.90;;;-3.87;100.00;96203.47;10319681;28;1921;-79
2021/12/21 09:05:31;;;;;;;;;;;-2.80;99.90;;;-3.56;100.00;96208.69;10315449;28;1969;-79
2021/12/21 09:10:35;;;;;;;;;;;-2.60;99.90;;;-3.66;100.00;96206.28;10326179;28;1933;-78
2021/12/21 09:15:39;;;;;;;;;;;-2.50;99.90;;;-3.81;100.00;96211.47;10330854;28;1910;-80
2021/12/21 09:20:42;;;;;;;;;;;-2.60;99.90;;;-3.88;100.00;96207.06;10316494;28;1869;-80
2021/12/21 09:25:46;;;;;;;;;;;-2.70;99.90;;;-3.81;100.00;96203.59;10317475;28;1910;-76
2021/12/21 09:30:49;;;;;;;;;;;-2.70;99.90;;;-3.58;100.00;96203.59;10345191;28;1890;-78
2021/12/21 09:35:52;;;;;;;;;;;-2.50;99.90;;;-3.46;100.00;96201.38;10329940;28;2005;-79
2021/12/21 09:40:55;;;;;;;;;;;-2.30;99.90;;;-3.44;100.00;96198.56;10320912;28;1949;-78
2021/12/21 09:45:59;;;;;;;;;;;-2.30;99.90;;;-3.38;100.00;96189.97;10308041;28;2632;-77
2021/12/21 09:51:02;;;;;;;;;;;-2.20;99.90;;;-3.48;100.00;96190.22;10309928;28;1847;-78
2021/12/21 09:56:04;;;;;;;;;;;-2.30;99.90;;;-3.37;100.00;96195.06;10329566;28;1747;-80
2021/12/21 10:01:07;;;;;;;;;;;-2.20;99.90;;;-3.40;100.00;96190.16;10317417;28;1966;-78
2021/12/21 10:06:11;;;;;;;;;;;-2.20;99.90;;;-3.44;100.00;96194.13;10313092;28;1899;-79
2021/12/21 10:11:14;;;;;;;;;;;-2.20;99.90;;;-3.18;100.00;96190.28;10312685;28;2762;-78
2021/12/21 10:16:17;;;;;;;;;;;-1.80;99.90;;;-3.23;100.00;96190.03;10321877;28;2004;-77
2021/12/21 10:21:21;;;;;;;;;;;-2.00;99.90;;;-3.27;100.00;96185.13;10326129;28;2128;-77
2021/12/21 10:26:24;;;;;;;;;;;-2.00;99.90;;;-3.39;100.00;96173.38;10332209;28;1984;-78
2021/12/21 10:31:27;;;;;;;;;;;-2.00;99.90;;;-3.08;100.00;96175.09;10319027;28;1884;-77
2021/12/21 10:36:30;;;;;;;;;;;-2.00;99.90;;;-2.72;100.00;96177.88;10309218;28;1889;-79
2021/12/21 10:41:36;;;;;;;;;;;-1.80;99.90;;;-2.79;100.00;96171.69;10309421;28;1964;-77
2021/12/21 10:46:40;;;;;;;;;;;-1.70;99.90;;;-2.73;100.00;96166.53;10301590;28;1882;-78
2021/12/21 10:52:07;;;;;;;;;;;-1.60;99.90;;;-3.08;100.00;96177.72;10302044;28;1946;-78
2021/12/21 10:57:11;;;;;;;;;;;-1.70;99.90;;;-3.20;100.00;96184.41;10315909;28;2077;-77
2021/12/21 11:02:16;;;;;;;;;;;-1.90;99.90;;;-2.83;100.00;96173.88;10300918;28;1914;-75
2021/12/21 11:07:26;;;;;;;;;;;-1.90;99.90;;;-2.76;100.00;96164.25;10303761;28;2132;-75
2021/12/21 11:12:30;;;;;;;;;;;-1.70;99.90;;;-2.59;100.00;96156.19;10288691;28;2005;-78
2021/12/21 11:17:37;;;;;;;;;;;-1.60;99.90;;;-2.68;100.00;96154.63;10284608;28;2306;-78
2021/12/21 11:22:40;;;;;;;;;;;-1.50;99.90;;;-2.58;100.00;96161.25;10292353;28;2081;-77
2021/12/21 11:27:44;;;;;;;;;;;-1.40;99.90;;;-2.31;100.00;96146.63;10308881;28;2039;-78
2021/12/21 11:32:48;;;;;;;;;;;-1.30;99.90;;;-2.39;100.00;96144.09;10295448;28;2123;-77
2021/12/21 11:37:52;;;;;;;;;;;-1.30;99.90;;;-2.13;100.00;96140.94;10294252;28;1878;-77
2021/12/21 11:42:54;;;;;;;;;;;-1.10;99.90;;;-2.25;100.00;96139.78;10292123;28;2049;-78
2021/12/21 11:47:57;;;;;;;;;;;-1.00;99.90;;;-2.15;100.00;96123.72;10316410;28;2218;-78
2021/12/21 11:53:00;;;;;;;;;;;-0.90;99.90;;;-2.22;100.00;96119.19;10316342;28;1859;-80
2021/12/21 11:58:04;;;;;;;;;;;-0.80;99.90;;;-2.08;100.00;96114.06;10337118;28;2041;-77
2021/12/21 12:03:07;;;;;;;;;;;-0.90;99.90;;;-1.76;100.00;96113.59;10327903;28;1909;-76
2021/12/21 12:08:11;;;;;;;;;;;-0.80;99.90;;;-2.08;100.00;96114.06;10318243;28;3180;-77
2021/12/21 12:13:15;;;;;;;;;;;-0.60;99.90;;;-1.72;100.00;96114.84;10306153;28;2959;-76
2021/12/21 12:18:19;;;;;;;;;;;0.50;99.90;;;-1.83;100.00;96107.44;10298941;28;2267;-78
2021/12/21 12:23:23;;;;;;;;;;;-0.60;99.90;;;-1.50;100.00;96091.09;10288458;28;3208;-76
2021/12/21 12:28:26;;;;;;;;;;;-0.50;99.90;;;-1.31;100.00;96101.00;10308271;23;2140;-73
2021/12/21 12:33:30;;;;;;;;;;;-0.30;99.90;;;-1.21;100.00;96106.75;10303616;28;2244;-74
2021/12/21 12:38:33;;;;;;;;;;;-0.10;99.90;;;-0.85;97.34;96103.13;10309407;28;1891;-74
2021/12/21 12:43:36;;;;;;;;;;;0.10;99.90;;;-0.84;98.37;96092.38;10310703;28;2151;-74
2021/12/21 12:48:39;;;;;;;;;;;0.10;99.90;;;-0.38;95.75;96083.03;10312564;28;1869;-74
2021/12/21 12:53:43;;;;;;;;;;;0.40;99.90;;;-0.61;97.25;96089.44;10328886;28;1942;-74
2021/12/21 12:58:46;;;;;;;;;;;0.50;99.90;;;-0.31;94.88;96097.09;10320766;28;1825;-74
2021/12/21 13:03:50;;;;;;;;;;;0.60;99.90;;;-0.10;92.65;96088.22;10310767;28;1910;-73
2021/12/21 13:08:53;;;;;;;;;;;0.80;99.90;;;-0.13;92.30;96086.78;10308377;28;2097;-74
2021/12/21 13:13:57;;;;;;;;;;;1.10;99.90;;;-0.77;92.78;96086.31;10357918;28;2053;-74
2021/12/21 13:19:00;;;;;;;;;;;0.70;99.90;;;-1.17;95.78;96089.53;10331422;28;1738;-74
2021/12/21 13:24:09;;;;;;;;;;;0.20;99.90;;;-1.21;99.11;96083.03;10315632;28;2079;-74
2021/12/21 13:29:14;;;;;;;;;;;0.00;99.90;;;-1.14;99.90;96083.06;10311886;28;2431;-74
2021/12/21 13:34:17;;;;;;;;;;;0.00;99.90;;;-1.42;100.00;96083.03;10313337;28;3225;-74
2021/12/21 13:39:20;;;;;;;;;;;-0.20;99.90;;;-1.26;100.00;96081.97;10332676;28;2259;-74
2021/12/21 13:44:23;;;;;;;;;;;-0.30;99.90;;;-1.07;100.00;96085.75;10324813;28;1981;-73
2021/12/21 13:49:26;;;;;;;;;;;-0.10;99.90;;;-0.86;97.12;96083.03;10327583;28;1833;-72
2021/12/21 13:54:29;;;;;;;;;;;0.00;99.90;;;-1.07;98.56;96096.31;10332382;28;1892;-71
2021/12/21 13:59:32;;;;;;;;;;;0.10;99.90;;;-0.81;95.95;96088.53;10324173;28;1877;-74
2021/12/21 14:04:48;;;;;;;;;;;;;;;-0.79;96.19;96090.97;10333274;28;1922;-75
2021/12/21 14:09:51;;;;;;;;;;;0.20;99.90;;;-1.00;98.56;96082.13;10342817;22;3841;-67
2021/12/21 14:14:54;;;;;;;;;;;0.20;99.90;;;-1.26;100.00;96087.25;10368091;28;1815;-67
2021/12/21 14:19:57;;;;;;;;;;;0.10;99.90;;;-1.24;100.00;96086.03;10380405;28;1755;-67
2021/12/21 14:25:01;;;;;;;;;;;-0.10;99.90;;;-1.36;99.38;96090.19;10368203;28;3533;-68
2021/12/21 14:30:04;;;;;;;;;;;-0.20;99.90;;;-1.55;98.10;96090.84;10364716;28;2303;-67
2021/12/21 14:35:07;;;;;;;;;;;-0.40;99.90;;;-1.63;97.63;96097.06;10372484;28;2208;-68
2021/12/21 14:40:10;;;;;;;;;;;-0.40;99.90;;;-1.61;97.74;96108.25;10360150;28;3284;-67
2021/12/21 14:45:13;;;;;;;;;;;-0.50;99.90;;;-1.76;98.51;96110.13;10347220;28;3291;-68
2021/12/21 14:50:18;;;;;;;;;;;-0.60;99.90;;;-1.81;99.04;96110.69;10353819;28;2375;-68
2021/12/21 14:55:23;;;;;;;;;;;-0.60;99.90;;;-1.77;99.84;96114.59;10347640;28;2215;-69
2021/12/21 15:00:26;;;;;;;;;;;-0.70;99.90;;;-1.77;100.00;96117.22;10350930;28;2344;-67
2021/12/21 15:05:29;;;;;;;;;;;-0.70;99.90;;;-1.91;100.00;96133.88;10351724;28;1960;-68
2021/12/21 15:10:33;;;;;;;;;;;-0.70;99.90;;;-2.09;100.00;96129.06;10355678;28;1827;-68
2021/12/21 15:15:36;;;;;;;;;;;-0.80;99.90;;;-2.28;100.00;96130.47;10347438;28;2303;-68
2021/12/21 15:20:39;;;;;;;;;;;-1.10;99.90;;;-2.46;100.00;96148.47;10364964;28;1857;-69
2021/12/21 15:25:42;;;;;;;;;;;-1.20;99.90;;;-2.52;100.00;96134.22;10362488;28;1969;-68
2021/12/21 15:30:44;;;;;;;;;;;-1.20;99.90;;;-2.61;100.00;96150.25;10376160;28;1870;-69
2021/12/21 15:35:47;;;;;;;;;;;-1.40;99.90;;;-2.64;100.00;96155.91;10363661;28;3566;-69
2021/12/21 15:40:50;;;;;;;;;;;-1.30;99.90;;;-2.75;100.00;96150.09;10352035;28;3143;-69
2021/12/21 15:45:54;;;;;;;;;;;-1.40;99.90;;;-2.86;100.00;96147.94;10352780;28;2858;-67
2021/12/21 15:50:57;;;;;;;;;;;-1.40;99.90;;;-2.98;100.00;96157.25;10349432;28;2597;-67
2021/12/21 15:56:00;;;;;;;;;;;-1.60;99.90;;;-2.98;100.00;96162.53;10360429;28;2148;-68
2021/12/21 16:01:03;;;;;;;;;;;-1.60;99.90;;;-3.09;100.00;96150.63;10355232;28;2500;-68
2021/12/21 16:06:06;;;;;;;;;;;-1.60;99.90;;;-3.11;100.00;96154.44;10357497;28;1987;-67
2021/12/21 16:11:09;;;;;;;;;;;-1.60;99.90;;;-3.14;100.00;96149.50;10390799;28;1906;-69
2021/12/21 16:16:12;;;;;;;;;;;-1.60;99.90;;;-3.22;100.00;96157.50;10372846;28;1881;-66
2021/12/21 16:21:15;;;;;;;;;;;-1.70;99.90;;;-3.20;100.00;96163.38;10352767;28;2212;-68
2021/12/21 16:26:38;;;;;;;;;;;-1.90;99.90;;;-3.28;100.00;96159.00;10352628;28;1981;-68
2021/12/21 16:31:42;;;;;;;;;;;-2.00;99.90;;;-3.13;100.00;96170.38;10365936;28;1907;-67
2021/12/21 16:36:45;;;;;;;;;;;-2.00;99.90;;;-2.98;100.00;96175.66;10359809;28;1870;-68
2021/12/21 16:41:49;;;;;;;;;;;-1.90;99.90;;;-2.74;100.00;96177.22;10361530;28;1808;-68
2021/12/21 16:46:52;;;;;;;;;;;-1.70;99.90;;;-2.61;100.00;96181.84;10356032;28;1922;-70
2021/12/21 16:51:55;;;;;;;;;;;-1.50;99.90;;;-2.65;100.00;96177.97;10353378;28;1859;-69
2021/12/21 16:56:58;;;;;;;;;;;-1.30;99.90;;;-2.57;100.00;96180.50;10352649;28;1808;-70
2021/12/21 17:02:01;;;;;;;;;;;-1.40;99.90;;;-2.53;100.00;96181.78;10349872;28;1843;-71
2021/12/21 17:07:05;;;;;;;;;;;-1.40;99.90;;;-2.37;100.00;96176.31;10342358;28;1988;-71
2021/12/21 17:12:08;;;;;;;;;;;-1.40;99.90;;;-2.32;100.00;96179.22;10383991;28;1898;-71
2021/12/21 17:17:11;;;;;;;;;;;-1.20;99.90;;;-2.12;100.00;96176.00;10363087;28;1840;-70
2021/12/21 17:22:14;;;;;;;;;;;-1.00;99.90;;;-2.12;100.00;96170.75;10369688;28;1886;-71
2021/12/21 17:27:17;;;;;;;;;;;-1.00;99.90;;;-2.15;100.00;96171.94;10371000;28;1890;-71
2021/12/21 17:32:20;;;;;;;;;;;-0.80;99.90;;;-2.10;100.00;96174.00;10380121;28;1890;-70
2021/12/21 17:37:25;;;;;;;;;;;-0.70;99.90;;;-1.97;100.00;96174.19;10370893;28;1910;-68
2021/12/21 17:42:29;;;;;;;;;;;-0.90;99.90;;;-2.18;100.00;96178.38;10367692;28;2357;-69
2021/12/21 17:47:32;;;;;;;;;;;-1.00;99.90;;;-2.48;100.00;96187.31;10363613;28;1977;-68
2021/12/21 17:52:36;;;;;;;;;;;-1.20;99.90;;;-2.75;100.00;96186.94;10364921;28;1847;-68
2021/12/21 17:57:39;;;;;;;;;;;-1.40;99.90;;;-2.87;100.00;96193.63;10365198;28;1808;-69
2021/12/21 18:02:42;;;;;;;;;;;-1.60;99.90;;;-2.93;100.00;96204.88;10365449;28;1875;-68
2021/12/21 18:07:46;;;;;;;;;;;-1.60;99.90;;;-2.97;100.00;96208.88;10363646;28;1914;-69
2021/12/21 18:12:50;;;;;;;;;;;-1.60;99.90;;;-2.95;100.00;96212.13;10366166;28;1788;-69
2021/12/21 18:17:53;;;;;;;;;;;-1.60;99.90;;;-2.95;100.00;96209.50;10363003;28;1864;-69
2021/12/21 18:22:57;;;;;;;;;;;-1.70;99.90;;;-3.09;100.00;96213.72;10371105;28;1907;-70
2021/12/21 18:28:00;;;;;;;;;;;-1.80;99.90;;;-3.14;100.00;96213.44;10367855;28;1968;-70
2021/12/21 18:33:04;;;;;;;;;;;-1.80;99.90;;;-3.21;100.00;96215.16;10359681;28;1764;-69
2021/12/21 18:38:08;;;;;;;;;;;-1.90;99.90;;;-3.22;100.00;96228.47;10363387;28;1965;-69
2021/12/21 18:43:11;;;;;;;;;;;-1.90;99.90;;;-3.28;100.00;96222.09;10370326;28;2581;-69
2021/12/21 18:48:14;;;;;;;;;;;-1.90;99.90;;;-3.33;100.00;96220.00;10380307;28;1906;-68
2021/12/21 18:53:18;;;;;;;;;;;-2.00;99.90;;;-3.32;100.00;96219.00;10374917;28;1934;-68
2021/12/21 18:58:21;;;;;;;;;;;-2.00;99.90;;;-3.26;100.00;96226.19;10377424;28;2179;-70
2021/12/21 19:03:25;;;;;;;;;;;-2.00;99.90;;;-3.23;100.00;96221.59;10384902;28;1875;-68
2021/12/21 19:08:29;;;;;;;;;;;-2.10;99.90;;;-3.17;100.00;96228.78;10385176;28;2200;-68
2021/12/21 19:13:32;;;;;;;;;;;-2.00;99.90;;;-3.15;100.00;96232.03;10374604;28;1971;-70
2021/12/21 19:18:35;;;;;;;;;;;-2.00;99.90;;;-3.24;100.00;96233.06;10372681;28;2204;-68
2021/12/21 19:23:39;;;;;;;;;;;-2.00;99.90;;;-3.38;100.00;96222.34;10373790;28;1827;-69
2021/12/21 19:28:42;;;;;;;;;;;-2.10;99.90;;;-3.51;100.00;96216.84;10369605;28;1918;-69
2021/12/21 19:33:45;;;;;;;;;;;-2.20;99.90;;;-3.51;100.00;96221.28;10360900;28;1772;-69
2021/12/21 19:38:49;;;;;;;;;;;-2.20;99.90;;;-3.57;100.00;96225.44;10357150;28;1927;-69
2021/12/21 19:43:52;;;;;;;;;;;-2.30;99.90;;;-3.63;100.00;96228.75;10354904;28;1950;-70
2021/12/21 19:48:55;;;;;;;;;;;-2.40;99.90;;;-3.60;100.00;96221.34;10355338;28;1993;-69
2021/12/21 19:53:58;;;;;;;;;;;-2.30;99.90;;;-3.71;100.00;96226.19;10353736;28;1926;-69
2021/12/21 19:59:03;;;;;;;;;;;-2.40;99.90;;;-3.63;100.00;96223.50;10356097;28;2282;-70
2021/12/21 20:04:07;;;;;;;;;;;-2.30;99.90;;;-3.72;100.00;96219.28;10363185;28;2009;-69
2021/12/21 20:09:11;;;;;;;;;;;-2.40;99.90;;;-3.81;100.00;96221.97;10356266;28;1914;-69
2021/12/21 20:14:14;;;;;;;;;;;-2.50;99.90;;;-3.68;100.00;96234.53;10355640;28;1915;-70
2021/12/21 20:19:18;;;;;;;;;;;-2.40;99.90;;;-3.74;100.00;96232.59;10362327;28;1916;-69
2021/12/21 20:24:21;;;;;;;;;;;-2.40;99.90;;;-3.79;100.00;96236.75;10356578;28;2260;-69
2021/12/21 20:29:24;;;;;;;;;;;-2.50;99.90;;;-3.63;100.00;96249.78;10364073;28;2200;-67
2021/12/21 20:34:32;;;;;;;;;;;-2.50;99.90;;;-3.73;100.00;96257.88;10354074;28;2007;-69
2021/12/21 20:39:35;;;;;;;;;;;-2.40;99.90;;;-3.70;100.00;96267.22;10361502;23;2209;-70
2021/12/21 20:44:38;;;;;;;;;;;-2.40;99.90;;;-3.77;100.00;96263.66;10358909;28;1938;-71
2021/12/21 20:49:42;;;;;;;;;;;-2.60;99.90;;;-3.64;100.00;96259.47;10363447;28;1882;-70
2021/12/21 20:54:45;;;;;;;;;;;-2.50;99.90;;;-3.68;100.00;96257.38;10365417;28;1907;-70
2021/12/21 20:59:48;;;;;;;;;;;-2.60;99.90;;;-3.79;100.00;96255.13;10360232;28;2236;-70
2021/12/21 21:04:52;;;;;;;;;;;-2.60;99.90;;;-3.69;100.00;96266.22;10354885;28;2291;-70
2021/12/21 21:09:55;;;;;;;;;;;-2.60;99.90;;;-3.83;100.00;96265.97;10364218;28;3319;-70
2021/12/21 21:14:59;;;;;;;;;;;-2.60;99.90;;;-3.78;100.00;96262.00;10364112;28;1845;-71
2021/12/21 21:20:02;;;;;;;;;;;-2.70;99.90;;;-3.77;100.00;96266.28;10361889;28;1871;-72
2021/12/21 21:25:05;;;;;;;;;;;-2.70;99.90;;;-4.00;100.00;96267.06;10362751;28;2420;-71
2021/12/21 21:30:09;;;;;;;;;;;-2.80;99.90;;;-3.98;100.00;96253.75;10361644;28;1798;-71
2021/12/21 21:35:12;;;;;;;;;;;-2.80;99.90;;;-4.03;100.00;96254.25;10358619;28;1870;-71
2021/12/21 21:40:15;;;;;;;;;;;-2.80;99.90;;;-4.09;100.00;96247.06;10373188;28;1791;-70
2021/12/21 21:45:18;;;;;;;;;;;-2.90;99.90;;;-4.09;100.00;96252.31;10362654;28;1906;-71
2021/12/21 21:50:21;;;;;;;;;;;-2.90;99.90;;;-4.14;100.00;96257.25;10361109;28;2923;-73
2021/12/21 21:55:28;;;;;;;;;;;;;;;-3.99;100.00;96263.44;10358459;28;2076;-71
2021/12/21 22:00:32;;;;;;;;;;;-2.20;99.90;;;-4.09;100.00;96271.50;10368558;28;1995;-73
2021/12/21 22:05:36;;;;;;;;;;;;;;;-4.15;100.00;96272.19;10388722;28;1980;-73
2021/12/21 22:10:39;;;;;;;;;;;-2.30;99.90;;;-4.09;100.00;96284.63;10364207;28;3311;-72
2021/12/21 22:15:43;;;;;;;;;;;;;;;-4.23;100.00;96289.78;10349778;28;2686;-73
2021/12/21 22:20:46;;;;;;;;;;;;;;;-4.37;100.00;96288.66;10358174;28;2394;-72
2021/12/21 22:25:50;;;;;;;;;;;;;;;-4.49;100.00;96301.31;10368039;28;2472;-72
2021/12/21 22:30:54;;;;;;;;;;;;;;;-4.50;100.00;96285.75;10374960;28;1882;-74
2021/12/21 22:35:58;;;;;;;;;;;;;;;-4.42;100.00;96301.47;10395809;28;1877;-73
2021/12/21 22:41:02;;;;;;;;;;;;;;;-4.62;100.00;96308.88;10374843;28;1933;-73
2021/12/21 22:46:06;;;;;;;;;;;;;;;-4.62;100.00;96316.75;10373088;28;1895;-72
2021/12/21 22:51:09;;;;;;;;;;;;;;;-4.76;100.00;96314.81;10371157;28;1371;-72
2021/12/21 22:56:13;;;;;;;;;;;;;;;-4.87;100.00;96315.94;10371206;28;1865;-73
2021/12/21 23:01:17;;;;;;;;;;;;;;;-4.77;100.00;96326.25;10368662;28;2313;-73
2021/12/21 23:06:22;;;;;;;;;;;;;;;-4.80;100.00;96324.78;10357300;28;1915;-73
2021/12/21 23:11:26;;;;;;;;;;;;;;;-4.68;100.00;96327.91;10369830;28;1854;-72
2021/12/21 23:16:29;;;;;;;;;;;;;;;-4.88;100.00;96327.44;10358527;28;1902;-72
2021/12/21 23:21:33;;;;;;;;;;;;;;;-5.02;100.00;96321.03;10359364;28;2415;-72
2021/12/21 23:26:36;;;;;;;;;;;;;;;-4.91;100.00;96318.06;10355865;28;1914;-73
2021/12/21 23:31:40;;;;;;;;;;;;;;;-4.90;100.00;96319.72;10361601;28;1883;-71
2021/12/21 23:36:43;;;;;;;;;;;;;;;-4.77;100.00;96313.16;10358475;28;1875;-72
2021/12/21 23:42:07;;;;;;;;;;;;;;;-4.87;100.00;96308.09;10360504;28;1846;-72
2021/12/21 23:47:11;;;;;;;;;;;;;;;-4.80;100.00;96313.50;10362354;28;1944;-72
2021/12/21 23:52:17;;;;;;;;;;;;;;;-4.77;100.00;96313.16;10362517;28;1851;-73
2021/12/21 23:57:21;;;;;;;;;;;;;;;-4.71;100.00;96329.06;10360367;28;1836;-74
